Bronaugh, MO (64728)

4:31 AM CST on January 30, 2015 (GMT -0600)
Nevada | Change Station
CLOSE
Current Station
Personal Weather Station
Location: Nevada, MO
Elevation: 863 ft
Nearby Weather Stations

Elev 863 ft 37.82 °N, 94.33 °W | Updated 8 seconds ago

Clear
Clear
17.6 °F
Feels Like 18 °F
N
0.7
Wind Variable Wind from West
Gusts 1.6 mph

Today
High -- | Low -- °F
--% Chance of Precip.
Yesterday
High -- | Low -- °F
Precip. -- in
7:23 AM 5:39 PM
Waxing Gibbous, 81% visible
Pressure 30.51 in
Visibility 10.0 miles
Clouds Clear
Windchill 18 °F
Dew Point 13 °F
Humidity 81%
Rainfall 0.00 in
Snow Depth Not available.
UV 0 out of 12
Pollen 2.90 out of 12
Air Quality Not available.
Flu Activity Not available.
METAR KPTS 301015Z AUTO 00000KT 10SM CLR M05/M05 A3051 RMK AO2 T10491049

More Conditions Fewer Conditions

Pressure 30.51 in
Visibility 10.0 miles
Clouds Clear
Windchill 18 °F
Dew Point 13 °F
Humidity 81%
Rainfall 0.00 in
Snow Depth Not available.
UV 0 out of 12
Pollen 2.90 out of 12
Air Quality Not available.
Flu Activity Not available.
METAR KPTS 301015Z AUTO 00000KT 10SM CLR M05/M05 A3051 RMK AO2 T10491049

More Conditions Fewer Conditions

10-Day Weather Forecast

Almanac

Astronomy

Jan. 30, 2015 Rise Set
Actual Time
Civil Twilight
Nautical Twilight
Astronomical Twilight
Moon
Length of Visible Light
Length of Day
Tomorrow will be .
, % of the Moon is Illuminated

Today's Extremes

State Highs State Lows

Community

WunderPhotos

Upload Photos

1,791,736 photos uploaded!

WunderBlogs® & News

Nearby

Air Quality

  Air Quality AQ Index Pollutant
Not available.

Snow Depth

Station Depth Elevation

Earthquake Activity

City Distance Mag. Time & Date
Minimum magnitude displayed is 2.5.

Coastal Water Temperatures

Place Temperature

Nearby Weather Stations